Terminal Aerodrome Forecast
Issued by NWS

Home | Current Version | Previous Version | Text Only | Print | Product List | Glossary On
Versions: 1 2 3 4 5 6 7 8 9 10 11 12 13 14 15 16 17 18 19 20 21 22 23 24 25 26 27 28 29
863
FTUS46 KMTR 281134
TAFSFO
TAF
KSFO 281134Z 2812/2918 29011KT P6SM FEW007
     FM281900 31012KT P6SM SKC
     FM282100 29019KT P6SM SKC
     FM290400 29011KT P6SM FEW010
     FM290900 29008KT P6SM OVC009
     FM291200 28007KT P6SM OVC007=

USA.gov is the U.S. government's official web portal to all federal, state and local government web resources and services.